Alexandria, MN

3:25 AM CDT on May 30, 2015 (GMT -0500)
Alexandria Minnesota | | Change Station
CLOSE
Current Station
Personal Weather Station
Location: Alexandria, MN
Elevation: 1397 ft
Nearby Weather Stations

Elev 1397 ft 45.87 °N, 95.47 °W | Updated 2 seconds ago

Clear
Clear
42.8 °F
Feels Like 39 °F
N
6.1
Wind Variable Wind from NNW
Gusts 11.0 mph

Today
High -- | Low -- °F
--% Chance of Precip.
Yesterday
High -- | Low -- °F
Precip. -- in
5:36 AM 9:02 PM
Waxing Gibbous, 89% visible
Pressure 30.24 in
Visibility 10.0 miles
Clouds Clear
Windchill 39 °F
Dew Point 37 °F
Humidity 79%
Rainfall 0.00 in
Snow Depth Not available.
UV 0 out of 12
Pollen .90 out of 12
Air Quality Not available.
Flu Activity Sporadic
METAR KAXN 300753Z AUTO 01012G19KT 10SM CLR 07/02 A3021 RMK AO2 SLP238 T00720022

More Conditions Fewer Conditions

Pressure 30.24 in
Visibility 10.0 miles
Clouds Clear
Windchill 39 °F
Dew Point 37 °F
Humidity 79%
Rainfall 0.00 in
Snow Depth Not available.
UV 0 out of 12
Pollen .90 out of 12
Air Quality Not available.
Flu Activity Sporadic
METAR KAXN 300753Z AUTO 01012G19KT 10SM CLR 07/02 A3021 RMK AO2 SLP238 T00720022

More Conditions Fewer Conditions

10-Day Weather Forecast

Almanac

Astronomy

May. 30, 2015 Rise Set
Actual Time
Civil Twilight
Nautical Twilight
Astronomical Twilight
Moon
Length of Visible Light
Length of Day
Tomorrow will be .
, % of the Moon is Illuminated

Today's Extremes

State Highs State Lows

Community

WunderPhotos

Upload Photos

1,825,472 photos uploaded!

WunderBlogs® & News

Nearby

Air Quality

  Air Quality AQ Index Pollutant
Not available.

Snow Depth

Station Depth Elevation

Earthquake Activity

City Distance Mag. Time & Date
Minimum magnitude displayed is 2.5.

Coastal Water Temperatures

Place Temperature

Stations

Nearby Weather Stations

Station Location Temp. Windchill Dew Point Humidity Wind Precip. Elev Updated Type